sensor_id;sensor_type;location;lat;lon;timestamp;P1;durP1;ratioP1;P2;durP2;ratioP2
15806;SDS011;8005;51.368;6.140;2023-05-07T00:01:05;16.77;;;13.07;;
15806;SDS011;8005;51.368;6.140;2023-05-07T00:02:37;15.68;;;12.23;;
15806;SDS011;8005;51.368;6.140;2023-05-07T00:04:10;13.88;;;11.98;;
15806;SDS011;8005;51.368;6.140;2023-05-07T00:05:42;17.13;;;13.15;;
15806;SDS011;8005;51.368;6.140;2023-05-07T00:07:14;15.55;;;12.88;;
15806;SDS011;8005;51.368;6.140;2023-05-07T00:08:47;17.02;;;13.07;;
15806;SDS011;8005;51.368;6.140;2023-05-07T00:10:19;16.48;;;13.57;;
15806;SDS011;8005;51.368;6.140;2023-05-07T00:11:51;18.55;;;13.65;;
15806;SDS011;8005;51.368;6.140;2023-05-07T00:13:23;13.57;;;11.80;;
15806;SDS011;8005;51.368;6.140;2023-05-07T00:14:55;17.53;;;13.37;;
15806;SDS011;8005;51.368;6.140;2023-05-07T00:16:27;15.48;;;12.43;;
15806;SDS011;8005;51.368;6.140;2023-05-07T00:17:59;15.98;;;12.63;;
15806;SDS011;8005;51.368;6.140;2023-05-07T00:19:31;15.45;;;13.30;;
15806;SDS011;8005;51.368;6.140;2023-05-07T00:21:03;20.33;;;13.45;;
15806;SDS011;8005;51.368;6.140;2023-05-07T00:22:35;16.77;;;12.52;;
15806;SDS011;8005;51.368;6.140;2023-05-07T00:24:07;15.63;;;13.00;;
15806;SDS011;8005;51.368;6.140;2023-05-07T00:25:39;15.45;;;12.52;;
15806;SDS011;8005;51.368;6.140;2023-05-07T00:27:11;16.58;;;11.80;;
15806;SDS011;8005;51.368;6.140;2023-05-07T00:28:43;16.38;;;13.20;;
15806;SDS011;8005;51.368;6.140;2023-05-07T00:30:15;15.33;;;13.07;;
15806;SDS011;8005;51.368;6.140;2023-05-07T00:31:48;17.25;;;12.90;;
15806;SDS011;8005;51.368;6.140;2023-05-07T00:33:21;19.63;;;13.23;;
15806;SDS011;8005;51.368;6.140;2023-05-07T00:34:53;14.88;;;12.55;;
15806;SDS011;8005;51.368;6.140;2023-05-07T00:36:25;16.88;;;13.40;;
15806;SDS011;8005;51.368;6.140;2023-05-07T00:37:57;15.15;;;13.23;;
15806;SDS011;8005;51.368;6.140;2023-05-07T00:39:29;16.90;;;12.52;;
15806;SDS011;8005;51.368;6.140;2023-05-07T00:41:01;25.23;;;13.67;;
15806;SDS011;8005;51.368;6.140;2023-05-07T00:42:34;19.15;;;13.48;;
15806;SDS011;8005;51.368;6.140;2023-05-07T00:44:06;15.70;;;13.07;;
15806;SDS011;8005;51.368;6.140;2023-05-07T00:45:38;16.95;;;12.95;;
15806;SDS011;8005;51.368;6.140;2023-05-07T00:47:10;17.30;;;12.20;;
15806;SDS011;8005;51.368;6.140;2023-05-07T00:48:43;18.30;;;12.85;;
15806;SDS011;8005;51.368;6.140;2023-05-07T00:50:15;15.50;;;11.95;;
15806;SDS011;8005;51.368;6.140;2023-05-07T00:51:47;16.95;;;12.07;;
15806;SDS011;8005;51.368;6.140;2023-05-07T00:53:19;16.40;;;11.95;;
15806;SDS011;8005;51.368;6.140;2023-05-07T00:56:24;15.32;;;12.18;;
15806;SDS011;8005;51.368;6.140;2023-05-07T00:57:56;20.90;;;13.20;;
15806;SDS011;8005;51.368;6.140;2023-05-07T00:59:28;17.13;;;14.00;;
15806;SDS011;8005;51.368;6.140;2023-05-07T01:01:00;15.75;;;12.25;;
15806;SDS011;8005;51.368;6.140;2023-05-07T01:02:33;15.85;;;13.05;;
15806;SDS011;8005;51.368;6.140;2023-05-07T01:04:05;16.27;;;13.07;;
15806;SDS011;8005;51.368;6.140;2023-05-07T01:05:37;13.80;;;12.40;;
15806;SDS011;8005;51.368;6.140;2023-05-07T01:08:42;15.38;;;12.50;;
15806;SDS011;8005;51.368;6.140;2023-05-07T01:10:14;19.02;;;12.55;;
15806;SDS011;8005;51.368;6.140;2023-05-07T01:11:47;14.23;;;12.32;;
15806;SDS011;8005;51.368;6.140;2023-05-07T01:13:19;17.88;;;13.90;;
15806;SDS011;8005;51.368;6.140;2023-05-07T01:14:52;18.65;;;13.35;;
15806;SDS011;8005;51.368;6.140;2023-05-07T01:16:24;13.80;;;12.30;;
15806;SDS011;8005;51.368;6.140;2023-05-07T01:17:56;17.52;;;13.60;;
15806;SDS011;8005;51.368;6.140;2023-05-07T01:19:35;16.17;;;12.15;;
15806;SDS011;8005;51.368;6.140;2023-05-07T01:21:07;15.05;;;12.55;;
15806;SDS011;8005;51.368;6.140;2023-05-07T01:22:42;15.75;;;12.95;;
15806;SDS011;8005;51.368;6.140;2023-05-07T01:25:51;15.93;;;11.80;;
15806;SDS011;8005;51.368;6.140;2023-05-07T01:27:28;15.15;;;12.15;;
15806;SDS011;8005;51.368;6.140;2023-05-07T01:29:00;15.25;;;11.52;;
15806;SDS011;8005;51.368;6.140;2023-05-07T01:30:33;14.45;;;12.48;;
15806;SDS011;8005;51.368;6.140;2023-05-07T01:32:08;16.05;;;11.98;;
15806;SDS011;8005;51.368;6.140;2023-05-07T01:35:15;16.55;;;11.82;;
15806;SDS011;8005;51.368;6.140;2023-05-07T01:36:50;16.33;;;11.48;;
15806;SDS011;8005;51.368;6.140;2023-05-07T01:38:25;16.63;;;12.02;;
15806;SDS011;8005;51.368;6.140;2023-05-07T01:39:57;13.27;;;11.88;;
15806;SDS011;8005;51.368;6.140;2023-05-07T01:41:29;15.02;;;11.52;;
15806;SDS011;8005;51.368;6.140;2023-05-07T01:43:01;16.48;;;11.73;;
15806;SDS011;8005;51.368;6.140;2023-05-07T01:44:35;14.05;;;11.65;;
15806;SDS011;8005;51.368;6.140;2023-05-07T01:46:07;14.40;;;12.38;;
15806;SDS011;8005;51.368;6.140;2023-05-07T01:47:41;15.90;;;12.52;;
15806;SDS011;8005;51.368;6.140;2023-05-07T01:49:14;15.23;;;12.43;;
15806;SDS011;8005;51.368;6.140;2023-05-07T01:50:47;15.98;;;12.48;;
15806;SDS011;8005;51.368;6.140;2023-05-07T01:52:19;16.63;;;13.05;;
15806;SDS011;8005;51.368;6.140;2023-05-07T01:53:52;15.40;;;12.73;;
15806;SDS011;8005;51.368;6.140;2023-05-07T01:55:25;15.63;;;12.90;;
15806;SDS011;8005;51.368;6.140;2023-05-07T01:56:56;17.35;;;13.88;;
15806;SDS011;8005;51.368;6.140;2023-05-07T01:58:29;15.98;;;13.45;;
15806;SDS011;8005;51.368;6.140;2023-05-07T02:00:01;14.50;;;12.05;;
15806;SDS011;8005;51.368;6.140;2023-05-07T02:01:45;16.02;;;12.82;;
15806;SDS011;8005;51.368;6.140;2023-05-07T02:03:17;15.43;;;11.95;;
15806;SDS011;8005;51.368;6.140;2023-05-07T02:04:57;15.75;;;13.18;;
15806;SDS011;8005;51.368;6.140;2023-05-07T02:06:29;16.05;;;12.48;;
15806;SDS011;8005;51.368;6.140;2023-05-07T02:08:07;13.65;;;12.25;;
15806;SDS011;8005;51.368;6.140;2023-05-07T02:09:39;14.43;;;12.27;;
15806;SDS011;8005;51.368;6.140;2023-05-07T02:11:12;15.68;;;12.52;;
15806;SDS011;8005;51.368;6.140;2023-05-07T02:12:44;18.65;;;12.73;;
15806;SDS011;8005;51.368;6.140;2023-05-07T02:14:16;15.50;;;12.57;;
15806;SDS011;8005;51.368;6.140;2023-05-07T02:15:48;14.07;;;12.60;;
15806;SDS011;8005;51.368;6.140;2023-05-07T02:17:22;15.73;;;12.43;;
15806;SDS011;8005;51.368;6.140;2023-05-07T02:18:54;15.18;;;11.98;;
15806;SDS011;8005;51.368;6.140;2023-05-07T02:20:27;15.15;;;12.57;;
15806;SDS011;8005;51.368;6.140;2023-05-07T02:21:59;16.75;;;13.57;;
15806;SDS011;8005;51.368;6.140;2023-05-07T02:23:34;14.32;;;12.35;;
15806;SDS011;8005;51.368;6.140;2023-05-07T02:25:06;14.25;;;12.75;;
15806;SDS011;8005;51.368;6.140;2023-05-07T02:26:39;13.40;;;12.00;;
15806;SDS011;8005;51.368;6.140;2023-05-07T02:28:12;16.92;;;12.48;;
15806;SDS011;8005;51.368;6.140;2023-05-07T02:29:51;13.98;;;12.48;;
15806;SDS011;8005;51.368;6.140;2023-05-07T02:31:23;16.75;;;13.02;;
15806;SDS011;8005;51.368;6.140;2023-05-07T02:32:55;17.90;;;12.32;;
15806;SDS011;8005;51.368;6.140;2023-05-07T02:34:28;17.15;;;12.93;;
15806;SDS011;8005;51.368;6.140;2023-05-07T02:36:09;14.10;;;11.67;;
15806;SDS011;8005;51.368;6.140;2023-05-07T02:37:57;15.32;;;12.05;;
15806;SDS011;8005;51.368;6.140;2023-05-07T02:39:29;16.13;;;11.80;;
15806;SDS011;8005;51.368;6.140;2023-05-07T02:41:01;16.48;;;13.18;;
15806;SDS011;8005;51.368;6.140;2023-05-07T02:42:33;16.83;;;13.55;;
15806;SDS011;8005;51.368;6.140;2023-05-07T02:44:05;16.27;;;12.27;;
15806;SDS011;8005;51.368;6.140;2023-05-07T02:45:37;17.83;;;12.32;;
15806;SDS011;8005;51.368;6.140;2023-05-07T02:47:13;17.27;;;12.88;;
15806;SDS011;8005;51.368;6.140;2023-05-07T02:48:47;15.50;;;12.25;;
15806;SDS011;8005;51.368;6.140;2023-05-07T02:50:19;16.88;;;12.73;;
15806;SDS011;8005;51.368;6.140;2023-05-07T02:51:51;16.73;;;11.43;;
15806;SDS011;8005;51.368;6.140;2023-05-07T02:53:27;18.27;;;13.95;;
15806;SDS011;8005;51.368;6.140;2023-05-07T02:54:59;15.35;;;12.05;;
15806;SDS011;8005;51.368;6.140;2023-05-07T02:56:31;15.88;;;12.45;;
15806;SDS011;8005;51.368;6.140;2023-05-07T02:58:03;16.10;;;12.23;;
15806;SDS011;8005;51.368;6.140;2023-05-07T02:59:37;17.42;;;12.68;;
15806;SDS011;8005;51.368;6.140;2023-05-07T03:01:09;14.55;;;12.73;;
15806;SDS011;8005;51.368;6.140;2023-05-07T03:02:47;16.02;;;12.45;;
15806;SDS011;8005;51.368;6.140;2023-05-07T03:04:19;15.63;;;12.68;;
15806;SDS011;8005;51.368;6.140;2023-05-07T03:05:52;14.63;;;12.15;;
15806;SDS011;8005;51.368;6.140;2023-05-07T03:07:24;13.15;;;11.40;;
15806;SDS011;8005;51.368;6.140;2023-05-07T03:08:56;19.70;;;13.03;;
15806;SDS011;8005;51.368;6.140;2023-05-07T03:10:28;17.37;;;12.60;;
15806;SDS011;8005;51.368;6.140;2023-05-07T03:12:00;19.80;;;13.30;;
15806;SDS011;8005;51.368;6.140;2023-05-07T03:13:33;13.85;;;11.52;;
15806;SDS011;8005;51.368;6.140;2023-05-07T03:15:05;16.10;;;13.23;;
15806;SDS011;8005;51.368;6.140;2023-05-07T03:18:10;18.85;;;12.27;;
15806;SDS011;8005;51.368;6.140;2023-05-07T03:19:42;16.75;;;12.80;;
15806;SDS011;8005;51.368;6.140;2023-05-07T03:21:14;14.93;;;12.75;;
15806;SDS011;8005;51.368;6.140;2023-05-07T03:22:46;20.08;;;13.88;;
15806;SDS011;8005;51.368;6.140;2023-05-07T03:24:18;17.80;;;12.07;;
15806;SDS011;8005;51.368;6.140;2023-05-07T03:25:50;17.03;;;12.50;;
15806;SDS011;8005;51.368;6.140;2023-05-07T03:27:23;18.00;;;12.85;;
15806;SDS011;8005;51.368;6.140;2023-05-07T03:28:56;15.52;;;12.23;;
15806;SDS011;8005;51.368;6.140;2023-05-07T03:30:28;16.80;;;12.47;;
15806;SDS011;8005;51.368;6.140;2023-05-07T03:32:01;17.13;;;13.73;;
15806;SDS011;8005;51.368;6.140;2023-05-07T03:33:33;16.85;;;13.82;;
15806;SDS011;8005;51.368;6.140;2023-05-07T03:36:38;15.65;;;12.57;;
15806;SDS011;8005;51.368;6.140;2023-05-07T03:38:13;15.07;;;12.38;;
15806;SDS011;8005;51.368;6.140;2023-05-07T03:39:45;14.40;;;11.57;;
15806;SDS011;8005;51.368;6.140;2023-05-07T03:41:17;16.10;;;13.48;;
15806;SDS011;8005;51.368;6.140;2023-05-07T03:42:50;16.45;;;12.48;;
15806;SDS011;8005;51.368;6.140;2023-05-07T03:44:24;17.40;;;13.65;;
15806;SDS011;8005;51.368;6.140;2023-05-07T03:45:56;14.90;;;11.43;;
15806;SDS011;8005;51.368;6.140;2023-05-07T03:47:30;14.80;;;12.18;;
15806;SDS011;8005;51.368;6.140;2023-05-07T03:49:03;18.25;;;12.23;;
15806;SDS011;8005;51.368;6.140;2023-05-07T03:50:35;15.73;;;11.70;;
15806;SDS011;8005;51.368;6.140;2023-05-07T03:52:07;18.05;;;12.25;;
15806;SDS011;8005;51.368;6.140;2023-05-07T03:53:39;15.37;;;11.60;;
15806;SDS011;8005;51.368;6.140;2023-05-07T03:55:11;18.00;;;11.90;;
15806;SDS011;8005;51.368;6.140;2023-05-07T03:56:46;16.25;;;12.27;;
15806;SDS011;8005;51.368;6.140;2023-05-07T03:58:18;15.82;;;13.30;;
15806;SDS011;8005;51.368;6.140;2023-05-07T03:59:50;17.67;;;12.23;;
15806;SDS011;8005;51.368;6.140;2023-05-07T04:01:22;13.97;;;12.10;;
15806;SDS011;8005;51.368;6.140;2023-05-07T04:02:55;14.38;;;11.38;;
15806;SDS011;8005;51.368;6.140;2023-05-07T04:04:30;17.15;;;11.00;;
15806;SDS011;8005;51.368;6.140;2023-05-07T04:06:05;13.13;;;11.30;;
15806;SDS011;8005;51.368;6.140;2023-05-07T04:07:39;14.10;;;10.70;;
15806;SDS011;8005;51.368;6.140;2023-05-07T04:09:11;13.05;;;11.23;;
15806;SDS011;8005;51.368;6.140;2023-05-07T04:10:43;13.15;;;11.02;;
15806;SDS011;8005;51.368;6.140;2023-05-07T04:12:15;17.20;;;11.75;;
15806;SDS011;8005;51.368;6.140;2023-05-07T04:13:47;15.45;;;12.30;;
15806;SDS011;8005;51.368;6.140;2023-05-07T04:15:24;15.35;;;10.93;;
15806;SDS011;8005;51.368;6.140;2023-05-07T04:16:56;13.65;;;11.55;;
15806;SDS011;8005;51.368;6.140;2023-05-07T04:18:28;14.88;;;11.43;;
15806;SDS011;8005;51.368;6.140;2023-05-07T04:20:00;16.65;;;11.90;;
15806;SDS011;8005;51.368;6.140;2023-05-07T04:21:33;13.43;;;11.27;;
15806;SDS011;8005;51.368;6.140;2023-05-07T04:23:05;16.20;;;11.57;;
15806;SDS011;8005;51.368;6.140;2023-05-07T04:24:37;13.23;;;11.05;;
15806;SDS011;8005;51.368;6.140;2023-05-07T04:26:09;14.67;;;11.37;;
15806;SDS011;8005;51.368;6.140;2023-05-07T04:27:47;14.90;;;10.73;;
15806;SDS011;8005;51.368;6.140;2023-05-07T04:29:21;13.95;;;10.68;;
15806;SDS011;8005;51.368;6.140;2023-05-07T04:30:53;16.08;;;11.35;;
15806;SDS011;8005;51.368;6.140;2023-05-07T04:32:26;12.68;;;10.95;;
15806;SDS011;8005;51.368;6.140;2023-05-07T04:33:58;13.45;;;10.40;;
15806;SDS011;8005;51.368;6.140;2023-05-07T04:35:30;17.40;;;10.65;;
15806;SDS011;8005;51.368;6.140;2023-05-07T04:37:03;13.57;;;9.73;;
15806;SDS011;8005;51.368;6.140;2023-05-07T04:38:35;11.73;;;10.07;;
15806;SDS011;8005;51.368;6.140;2023-05-07T04:40:08;10.85;;;9.55;;
15806;SDS011;8005;51.368;6.140;2023-05-07T04:41:41;14.88;;;10.35;;
15806;SDS011;8005;51.368;6.140;2023-05-07T04:43:14;13.07;;;10.45;;
15806;SDS011;8005;51.368;6.140;2023-05-07T04:44:52;15.82;;;10.95;;
15806;SDS011;8005;51.368;6.140;2023-05-07T04:46:26;12.73;;;10.48;;
15806;SDS011;8005;51.368;6.140;2023-05-07T04:48:00;15.45;;;9.95;;
15806;SDS011;8005;51.368;6.140;2023-05-07T04:49:35;12.48;;;9.60;;
15806;SDS011;8005;51.368;6.140;2023-05-07T04:51:06;10.60;;;9.50;;
15806;SDS011;8005;51.368;6.140;2023-05-07T04:52:38;11.20;;;9.32;;
15806;SDS011;8005;51.368;6.140;2023-05-07T04:54:11;12.15;;;9.82;;
15806;SDS011;8005;51.368;6.140;2023-05-07T04:55:43;13.77;;;10.60;;
15806;SDS011;8005;51.368;6.140;2023-05-07T04:57:16;13.32;;;10.23;;
15806;SDS011;8005;51.368;6.140;2023-05-07T04:58:51;12.30;;;10.15;;
15806;SDS011;8005;51.368;6.140;2023-05-07T05:00:25;11.98;;;10.10;;
15806;SDS011;8005;51.368;6.140;2023-05-07T05:01:59;13.25;;;9.88;;
15806;SDS011;8005;51.368;6.140;2023-05-07T05:03:33;11.15;;;8.88;;
15806;SDS011;8005;51.368;6.140;2023-05-07T05:05:05;16.17;;;9.70;;
15806;SDS011;8005;51.368;6.140;2023-05-07T05:06:37;11.23;;;9.88;;
15806;SDS011;8005;51.368;6.140;2023-05-07T05:08:10;10.60;;;9.50;;
15806;SDS011;8005;51.368;6.140;2023-05-07T05:09:45;12.40;;;9.23;;
15806;SDS011;8005;51.368;6.140;2023-05-07T05:11:17;10.50;;;9.40;;
15806;SDS011;8005;51.368;6.140;2023-05-07T05:12:49;11.43;;;8.80;;
15806;SDS011;8005;51.368;6.140;2023-05-07T05:14:21;11.45;;;9.45;;
15806;SDS011;8005;51.368;6.140;2023-05-07T05:15:55;11.77;;;9.45;;
15806;SDS011;8005;51.368;6.140;2023-05-07T05:17:28;12.88;;;9.75;;
15806;SDS011;8005;51.368;6.140;2023-05-07T05:19:01;11.07;;;9.38;;
15806;SDS011;8005;51.368;6.140;2023-05-07T05:20:35;12.23;;;9.90;;
15806;SDS011;8005;51.368;6.140;2023-05-07T05:22:07;15.55;;;9.32;;
15806;SDS011;8005;51.368;6.140;2023-05-07T05:23:39;15.95;;;9.57;;
15806;SDS011;8005;51.368;6.140;2023-05-07T05:25:12;11.52;;;9.68;;
15806;SDS011;8005;51.368;6.140;2023-05-07T05:26:44;15.25;;;9.02;;
15806;SDS011;8005;51.368;6.140;2023-05-07T05:28:16;11.82;;;8.98;;
15806;SDS011;8005;51.368;6.140;2023-05-07T05:29:48;13.63;;;9.80;;
15806;SDS011;8005;51.368;6.140;2023-05-07T05:31:20;11.98;;;9.13;;
15806;SDS011;8005;51.368;6.140;2023-05-07T05:32:54;13.40;;;9.15;;
15806;SDS011;8005;51.368;6.140;2023-05-07T05:34:26;15.82;;;10.25;;
15806;SDS011;8005;51.368;6.140;2023-05-07T05:35:59;15.30;;;9.45;;
15806;SDS011;8005;51.368;6.140;2023-05-07T05:37:31;15.27;;;9.27;;
15806;SDS011;8005;51.368;6.140;2023-05-07T05:39:05;14.50;;;9.25;;
15806;SDS011;8005;51.368;6.140;2023-05-07T05:40:37;12.20;;;8.93;;
15806;SDS011;8005;51.368;6.140;2023-05-07T05:42:09;13.20;;;10.20;;
15806;SDS011;8005;51.368;6.140;2023-05-07T05:43:41;10.65;;;8.65;;
15806;SDS011;8005;51.368;6.140;2023-05-07T05:45:14;13.60;;;9.00;;
15806;SDS011;8005;51.368;6.140;2023-05-07T05:46:48;10.18;;;8.20;;
15806;SDS011;8005;51.368;6.140;2023-05-07T05:48:26;12.32;;;8.57;;
15806;SDS011;8005;51.368;6.140;2023-05-07T05:49:58;12.70;;;8.55;;
15806;SDS011;8005;51.368;6.140;2023-05-07T05:51:30;10.15;;;8.50;;
15806;SDS011;8005;51.368;6.140;2023-05-07T05:53:02;11.38;;;8.48;;
15806;SDS011;8005;51.368;6.140;2023-05-07T05:54:34;11.27;;;8.98;;
15806;SDS011;8005;51.368;6.140;2023-05-07T05:56:06;11.60;;;8.90;;
15806;SDS011;8005;51.368;6.140;2023-05-07T05:57:39;12.25;;;8.98;;
15806;SDS011;8005;51.368;6.140;2023-05-07T05:59:11;13.13;;;9.30;;
15806;SDS011;8005;51.368;6.140;2023-05-07T06:00:44;13.30;;;9.48;;
15806;SDS011;8005;51.368;6.140;2023-05-07T06:02:16;9.23;;;8.30;;
15806;SDS011;8005;51.368;6.140;2023-05-07T06:03:48;11.68;;;8.88;;
15806;SDS011;8005;51.368;6.140;2023-05-07T06:05:21;10.63;;;9.20;;
15806;SDS011;8005;51.368;6.140;2023-05-07T06:06:56;10.65;;;8.80;;
15806;SDS011;8005;51.368;6.140;2023-05-07T06:08:29;10.88;;;8.98;;
15806;SDS011;8005;51.368;6.140;2023-05-07T06:10:02;11.02;;;8.95;;
15806;SDS011;8005;51.368;6.140;2023-05-07T06:11:36;11.50;;;8.27;;
15806;SDS011;8005;51.368;6.140;2023-05-07T06:13:09;10.50;;;8.75;;
15806;SDS011;8005;51.368;6.140;2023-05-07T06:14:44;11.13;;;9.00;;
15806;SDS011;8005;51.368;6.140;2023-05-07T06:16:16;11.23;;;7.60;;
15806;SDS011;8005;51.368;6.140;2023-05-07T06:17:49;8.95;;;8.00;;
15806;SDS011;8005;51.368;6.140;2023-05-07T06:19:21;10.85;;;8.90;;
15806;SDS011;8005;51.368;6.140;2023-05-07T06:20:57;10.73;;;8.63;;
15806;SDS011;8005;51.368;6.140;2023-05-07T06:22:33;11.38;;;9.00;;
15806;SDS011;8005;51.368;6.140;2023-05-07T06:24:05;14.95;;;9.15;;
15806;SDS011;8005;51.368;6.140;2023-05-07T06:25:38;13.00;;;9.15;;
15806;SDS011;8005;51.368;6.140;2023-05-07T06:27:10;12.23;;;8.80;;
15806;SDS011;8005;51.368;6.140;2023-05-07T06:28:42;11.10;;;9.55;;
15806;SDS011;8005;51.368;6.140;2023-05-07T06:30:16;9.90;;;8.13;;
15806;SDS011;8005;51.368;6.140;2023-05-07T06:31:48;12.00;;;9.07;;
15806;SDS011;8005;51.368;6.140;2023-05-07T06:33:20;11.30;;;9.23;;
15806;SDS011;8005;51.368;6.140;2023-05-07T06:34:52;11.30;;;9.63;;
15806;SDS011;8005;51.368;6.140;2023-05-07T06:36:24;12.07;;;9.30;;
15806;SDS011;8005;51.368;6.140;2023-05-07T06:37:59;11.93;;;8.25;;
15806;SDS011;8005;51.368;6.140;2023-05-07T06:39:33;11.35;;;8.32;;
15806;SDS011;8005;51.368;6.140;2023-05-07T06:41:05;9.75;;;8.52;;
15806;SDS011;8005;51.368;6.140;2023-05-07T06:42:38;11.00;;;8.93;;
15806;SDS011;8005;51.368;6.140;2023-05-07T06:44:28;14.68;;;8.90;;
15806;SDS011;8005;51.368;6.140;2023-05-07T06:46:20;10.07;;;8.52;;
15806;SDS011;8005;51.368;6.140;2023-05-07T06:47:53;13.85;;;9.25;;
15806;SDS011;8005;51.368;6.140;2023-05-07T06:49:26;13.10;;;9.73;;
15806;SDS011;8005;51.368;6.140;2023-05-07T06:50:58;8.57;;;7.65;;
15806;SDS011;8005;51.368;6.140;2023-05-07T06:52:30;11.23;;;8.63;;
15806;SDS011;8005;51.368;6.140;2023-05-07T06:54:05;12.35;;;8.43;;
15806;SDS011;8005;51.368;6.140;2023-05-07T06:55:40;12.18;;;7.63;;
15806;SDS011;8005;51.368;6.140;2023-05-07T06:57:14;11.65;;;8.70;;
15806;SDS011;8005;51.368;6.140;2023-05-07T06:58:46;9.07;;;7.82;;
15806;SDS011;8005;51.368;6.140;2023-05-07T07:00:18;11.73;;;8.32;;
15806;SDS011;8005;51.368;6.140;2023-05-07T07:01:55;11.85;;;8.20;;
15806;SDS011;8005;51.368;6.140;2023-05-07T07:03:28;9.70;;;7.47;;
15806;SDS011;8005;51.368;6.140;2023-05-07T07:05:00;9.13;;;7.68;;
15806;SDS011;8005;51.368;6.140;2023-05-07T07:06:32;8.85;;;6.40;;
15806;SDS011;8005;51.368;6.140;2023-05-07T07:08:07;10.80;;;6.97;;
15806;SDS011;8005;51.368;6.140;2023-05-07T07:09:40;8.68;;;7.22;;
15806;SDS011;8005;51.368;6.140;2023-05-07T07:11:13;8.50;;;7.05;;
15806;SDS011;8005;51.368;6.140;2023-05-07T07:12:47;9.82;;;7.78;;
15806;SDS011;8005;51.368;6.140;2023-05-07T07:14:20;9.48;;;6.97;;
15806;SDS011;8005;51.368;6.140;2023-05-07T07:15:54;8.18;;;6.80;;
15806;SDS011;8005;51.368;6.140;2023-05-07T07:17:27;10.30;;;7.15;;
15806;SDS011;8005;51.368;6.140;2023-05-07T07:18:59;10.48;;;7.47;;
15806;SDS011;8005;51.368;6.140;2023-05-07T07:20:32;10.00;;;6.47;;
15806;SDS011;8005;51.368;6.140;2023-05-07T07:22:04;12.15;;;7.75;;
15806;SDS011;8005;51.368;6.140;2023-05-07T07:23:37;8.30;;;7.30;;
15806;SDS011;8005;51.368;6.140;2023-05-07T07:25:09;11.40;;;8.05;;
15806;SDS011;8005;51.368;6.140;2023-05-07T07:26:43;13.20;;;7.40;;
15806;SDS011;8005;51.368;6.140;2023-05-07T07:28:17;9.10;;;7.15;;
15806;SDS011;8005;51.368;6.140;2023-05-07T07:29:49;8.07;;;6.85;;
15806;SDS011;8005;51.368;6.140;2023-05-07T07:31:22;9.07;;;6.57;;
15806;SDS011;8005;51.368;6.140;2023-05-07T07:32:55;7.10;;;5.82;;
15806;SDS011;8005;51.368;6.140;2023-05-07T07:34:32;7.57;;;5.88;;
15806;SDS011;8005;51.368;6.140;2023-05-07T07:36:05;8.50;;;6.88;;
15806;SDS011;8005;51.368;6.140;2023-05-07T07:37:38;6.32;;;5.50;;
15806;SDS011;8005;51.368;6.140;2023-05-07T07:39:10;10.70;;;6.72;;
15806;SDS011;8005;51.368;6.140;2023-05-07T07:40:43;7.32;;;6.05;;
15806;SDS011;8005;51.368;6.140;2023-05-07T07:42:15;8.85;;;6.55;;
15806;SDS011;8005;51.368;6.140;2023-05-07T07:43:47;7.72;;;6.05;;
15806;SDS011;8005;51.368;6.140;2023-05-07T07:45:22;7.80;;;5.45;;
15806;SDS011;8005;51.368;6.140;2023-05-07T07:47:00;8.52;;;6.05;;
15806;SDS011;8005;51.368;6.140;2023-05-07T07:48:33;7.50;;;6.10;;
15806;SDS011;8005;51.368;6.140;2023-05-07T07:50:05;9.75;;;6.18;;
15806;SDS011;8005;51.368;6.140;2023-05-07T07:51:38;9.63;;;5.63;;
15806;SDS011;8005;51.368;6.140;2023-05-07T07:53:11;10.93;;;6.00;;
15806;SDS011;8005;51.368;6.140;2023-05-07T07:54:43;8.80;;;5.22;;
15806;SDS011;8005;51.368;6.140;2023-05-07T07:56:16;8.75;;;5.55;;
15806;SDS011;8005;51.368;6.140;2023-05-07T07:57:49;8.63;;;6.47;;
15806;SDS011;8005;51.368;6.140;2023-05-07T07:59:21;7.57;;;6.28;;
15806;SDS011;8005;51.368;6.140;2023-05-07T08:02:28;10.90;;;5.88;;
15806;SDS011;8005;51.368;6.140;2023-05-07T08:04:00;6.07;;;5.47;;
15806;SDS011;8005;51.368;6.140;2023-05-07T08:05:37;8.23;;;5.72;;
15806;SDS011;8005;51.368;6.140;2023-05-07T08:07:10;8.30;;;5.25;;
15806;SDS011;8005;51.368;6.140;2023-05-07T08:08:45;7.32;;;5.10;;
15806;SDS011;8005;51.368;6.140;2023-05-07T08:10:18;6.47;;;4.60;;
15806;SDS011;8005;51.368;6.140;2023-05-07T08:11:57;7.82;;;4.88;;
15806;SDS011;8005;51.368;6.140;2023-05-07T08:13:30;6.13;;;5.07;;
15806;SDS011;8005;51.368;6.140;2023-05-07T08:15:03;7.95;;;4.78;;
15806;SDS011;8005;51.368;6.140;2023-05-07T08:19:09;6.35;;;5.72;;
15806;SDS011;8005;51.368;6.140;2023-05-07T08:20:42;9.05;;;4.75;;
15806;SDS011;8005;51.368;6.140;2023-05-07T08:22:19;8.88;;;4.97;;
15806;SDS011;8005;51.368;6.140;2023-05-07T08:23:51;11.75;;;4.55;;
15806;SDS011;8005;51.368;6.140;2023-05-07T08:25:23;7.63;;;4.63;;
15806;SDS011;8005;51.368;6.140;2023-05-07T08:26:55;5.78;;;4.32;;
15806;SDS011;8005;51.368;6.140;2023-05-07T08:28:27;7.97;;;4.63;;
15806;SDS011;8005;51.368;6.140;2023-05-07T08:29:59;6.43;;;4.40;;
15806;SDS011;8005;51.368;6.140;2023-05-07T08:31:32;6.70;;;4.45;;
15806;SDS011;8005;51.368;6.140;2023-05-07T08:33:05;7.47;;;4.28;;
15806;SDS011;8005;51.368;6.140;2023-05-07T08:34:37;5.35;;;4.05;;
15806;SDS011;8005;51.368;6.140;2023-05-07T08:36:10;6.35;;;4.40;;
15806;SDS011;8005;51.368;6.140;2023-05-07T08:37:42;7.75;;;4.60;;
15806;SDS011;8005;51.368;6.140;2023-05-07T08:39:16;6.15;;;4.25;;
15806;SDS011;8005;51.368;6.140;2023-05-07T08:40:51;7.03;;;4.10;;
15806;SDS011;8005;51.368;6.140;2023-05-07T08:42:25;7.90;;;4.22;;
15806;SDS011;8005;51.368;6.140;2023-05-07T08:43:59;5.85;;;3.28;;
15806;SDS011;8005;51.368;6.140;2023-05-07T08:45:35;7.82;;;3.92;;
15806;SDS011;8005;51.368;6.140;2023-05-07T08:47:07;5.28;;;3.42;;
15806;SDS011;8005;51.368;6.140;2023-05-07T08:48:41;7.03;;;3.40;;
15806;SDS011;8005;51.368;6.140;2023-05-07T08:50:16;5.32;;;3.40;;
15806;SDS011;8005;51.368;6.140;2023-05-07T08:51:49;4.28;;;2.92;;
15806;SDS011;8005;51.368;6.140;2023-05-07T08:53:21;3.58;;;3.20;;
15806;SDS011;8005;51.368;6.140;2023-05-07T08:54:54;5.70;;;3.47;;
15806;SDS011;8005;51.368;6.140;2023-05-07T08:56:27;6.70;;;3.70;;
15806;SDS011;8005;51.368;6.140;2023-05-07T08:58:00;4.60;;;3.40;;
15806;SDS011;8005;51.368;6.140;2023-05-07T08:59:34;6.05;;;3.58;;
15806;SDS011;8005;51.368;6.140;2023-05-07T09:01:14;6.53;;;3.47;;
15806;SDS011;8005;51.368;6.140;2023-05-07T09:02:52;10.55;;;3.88;;
15806;SDS011;8005;51.368;6.140;2023-05-07T09:04:25;6.32;;;3.38;;
15806;SDS011;8005;51.368;6.140;2023-05-07T09:05:57;6.20;;;3.28;;
15806;SDS011;8005;51.368;6.140;2023-05-07T09:07:30;5.28;;;2.85;;
15806;SDS011;8005;51.368;6.140;2023-05-07T09:09:03;8.07;;;3.45;;
15806;SDS011;8005;51.368;6.140;2023-05-07T09:10:37;7.85;;;3.22;;
15806;SDS011;8005;51.368;6.140;2023-05-07T09:12:10;5.45;;;2.72;;
15806;SDS011;8005;51.368;6.140;2023-05-07T09:13:42;7.88;;;3.22;;
15806;SDS011;8005;51.368;6.140;2023-05-07T09:15:14;5.50;;;2.95;;
15806;SDS011;8005;51.368;6.140;2023-05-07T09:16:47;8.10;;;3.55;;
15806;SDS011;8005;51.368;6.140;2023-05-07T09:18:20;5.75;;;3.20;;
15806;SDS011;8005;51.368;6.140;2023-05-07T09:19:53;4.35;;;2.83;;
15806;SDS011;8005;51.368;6.140;2023-05-07T09:21:25;6.38;;;3.15;;
15806;SDS011;8005;51.368;6.140;2023-05-07T09:22:59;5.35;;;3.10;;
15806;SDS011;8005;51.368;6.140;2023-05-07T09:24:32;4.03;;;2.55;;
15806;SDS011;8005;51.368;6.140;2023-05-07T09:26:11;3.15;;;2.53;;
15806;SDS011;8005;51.368;6.140;2023-05-07T09:27:45;5.18;;;2.50;;
15806;SDS011;8005;51.368;6.140;2023-05-07T09:29:17;6.00;;;3.13;;
15806;SDS011;8005;51.368;6.140;2023-05-07T09:30:50;5.38;;;3.38;;
15806;SDS011;8005;51.368;6.140;2023-05-07T09:32:22;5.07;;;2.80;;